Terminal Aerodrome Forecast
Issued by NWS Sterling, VA

Home | Current Version | Previous Version | Text Only | Print | Product List | Glossary On
Versions: 1 2 3 4 5 6 7 8 9 10 11 12 13 14 15 16 17 18 19 20 21 22 23 24
000
FTUS41 KLWX 020700 AAA
TAFMRB
TAF AMD
KMRB 020709Z 0207/0306 05003KT 1/2SM FG BKN030 BKN040
      TEMPO 0207/0208 00000KT 1/4SM FG OVC020
     FM020900 00000KT 2SM BR SCT015 BKN030
      TEMPO 0210/0212 00000KT 1/4SM FG OVC002
     FM021400 VRB03KT P6SM SCT040 SCT100
     FM021800 13005KT P6SM SCT050 SCT200=

USA.gov is the U.S. government's official web portal to all federal, state and local government web resources and services.